Time;durP1;ratioP1;P1;durP2;ratioP2;P2;SDS_P1;SDS_P2;PMS_P1;PMS_P2;Temp;Humidity;BMP_temperature;BMP_pressure;BME280_temperature;BME280_humidity;BME280_pressure;Samples;Min_cycle;Max_cycle;Signal;HPM_P1;HPM_P2
2021/01/07 00:01:07;;;;;;;29.17;19.83;;;;;;;;;;5002205;28;20064;-69
2021/01/07 00:03:38;;;;;;;27.48;21.27;;;;;;;;;;4998262;28;20049;-69
2021/01/07 00:06:08;;;;;;;26.42;20.63;;;;;;;;;;4998449;28;20037;-69
2021/01/07 00:08:33;;;;;;;25.08;20.25;;;;;;;;;;4999786;28;20246;-69
2021/01/07 00:10:59;;;;;;;26.10;20.15;;;;;;;;;;5000285;28;20042;-68
2021/01/07 00:13:25;;;;;;;28.67;21.88;;;;;;;;;;5000490;28;20564;-69
2021/01/07 00:15:50;;;;;;;27.42;21.63;;;;;;;;;;4999672;28;20022;-68
2021/01/07 00:18:15;;;;;;;24.35;20.05;;;;;;;;;;4999358;28;20061;-68
2021/01/07 00:20:41;;;;;;;30.55;21.75;;;;;;;;;;4997771;28;20053;-68
2021/01/07 00:23:06;;;;;;;26.25;20.77;;;;;;;;;;5002074;28;20038;-69
2021/01/07 00:25:31;;;;;;;27.83;21.70;;;;;;;;;;5000338;28;20026;-68
2021/01/07 00:27:57;;;;;;;26.88;21.52;;;;;;;;;;5001195;28;20053;-68
2021/01/07 00:30:22;;;;;;;26.83;20.50;;;;;;;;;;4996471;28;20042;-69
2021/01/07 00:32:47;;;;;;;25.88;20.60;;;;;;;;;;4998455;28;20026;-68
2021/01/07 00:35:13;;;;;;;24.80;19.85;;;;;;;;;;5000831;28;20037;-69
2021/01/07 00:37:38;;;;;;;31.20;21.27;;;;;;;;;;4998616;28;20050;-68
2021/01/07 00:40:05;;;;;;;26.20;22.48;;;;;;;;;;5001786;28;20040;-68
2021/01/07 00:42:30;;;;;;;26.63;20.80;;;;;;;;;;5015048;28;20112;-68
2021/01/07 00:44:55;;;;;;;26.00;20.40;;;;;;;;;;5005039;28;20057;-69
2021/01/07 00:47:21;;;;;;;26.23;20.27;;;;;;;;;;5001979;28;20046;-68
2021/01/07 00:49:47;;;;;;;29.20;21.85;;;;;;;;;;5003857;28;20041;-68
2021/01/07 00:52:13;;;;;;;26.10;19.70;;;;;;;;;;5004956;28;20064;-68
2021/01/07 00:54:39;;;;;;;25.60;21.50;;;;;;;;;;5000428;28;20042;-69
2021/01/07 00:57:04;;;;;;;27.10;21.63;;;;;;;;;;5004200;28;20456;-69
2021/01/07 00:59:29;;;;;;;29.35;21.75;;;;;;;;;;5000268;28;20117;-69
2021/01/07 01:01:55;;;;;;;25.17;20.42;;;;;;;;;;5003691;28;20062;-68
2021/01/07 01:04:20;;;;;;;25.88;21.13;;;;;;;;;;5003726;28;20117;-69
2021/01/07 01:06:45;;;;;;;26.90;20.83;;;;;;;;;;5003262;28;20030;-69
2021/01/07 01:09:13;;;;;;;29.90;20.33;;;;;;;;;;5004481;28;20033;-69
2021/01/07 01:11:40;;;;;;;26.92;21.27;;;;;;;;;;4997995;28;20046;-68
2021/01/07 01:14:06;;;;;;;26.17;21.30;;;;;;;;;;5002162;28;20061;-69
2021/01/07 01:16:32;;;;;;;28.27;21.60;;;;;;;;;;5003194;28;20037;-69
2021/01/07 01:18:57;;;;;;;33.45;22.70;;;;;;;;;;5004192;28;20045;-69
2021/01/07 01:21:23;;;;;;;30.33;21.75;;;;;;;;;;5002822;28;20095;-69
2021/01/07 01:23:48;;;;;;;27.35;22.05;;;;;;;;;;5003503;28;20077;-69
2021/01/07 01:26:16;;;;;;;31.02;22.92;;;;;;;;;;5003248;28;20149;-68
2021/01/07 01:28:42;;;;;;;27.55;22.55;;;;;;;;;;5000744;28;20109;-69
2021/01/07 01:31:07;;;;;;;25.00;20.58;;;;;;;;;;5004349;28;20110;-69
2021/01/07 01:33:34;;;;;;;31.40;21.98;;;;;;;;;;5003024;28;20057;-69
2021/01/07 01:35:59;;;;;;;29.30;21.95;;;;;;;;;;5003141;28;20476;-69
2021/01/07 01:38:24;;;;;;;29.45;22.77;;;;;;;;;;5003547;28;20037;-69
2021/01/07 01:40:49;;;;;;;30.92;23.42;;;;;;;;;;5003460;28;20084;-69
2021/01/07 01:43:15;;;;;;;28.73;22.48;;;;;;;;;;5019757;28;20084;-69
2021/01/07 01:45:40;;;;;;;30.80;23.90;;;;;;;;;;5001590;28;20038;-68
2021/01/07 01:48:08;;;;;;;33.60;24.13;;;;;;;;;;5004389;28;20315;-69
2021/01/07 01:50:33;;;;;;;29.92;23.08;;;;;;;;;;4999107;28;20413;-69
2021/01/07 01:52:58;;;;;;;28.95;22.58;;;;;;;;;;5000402;28;20129;-68
2021/01/07 01:55:24;;;;;;;31.75;23.92;;;;;;;;;;4999624;28;20061;-69
2021/01/07 01:57:49;;;;;;;32.33;23.98;;;;;;;;;;5003012;28;20596;-69
2021/01/07 02:00:15;;;;;;;31.83;23.52;;;;;;;;;;5001994;28;20042;-69
2021/01/07 02:02:41;;;;;;;27.92;21.75;;;;;;;;;;5001651;28;20033;-69
2021/01/07 02:05:07;;;;;;;28.17;22.27;;;;;;;;;;5004452;28;20030;-69
2021/01/07 02:07:32;;;;;;;27.15;21.67;;;;;;;;;;5002741;28;20119;-69
2021/01/07 02:09:58;;;;;;;29.38;22.40;;;;;;;;;;5002148;28;20033;-69
2021/01/07 02:12:24;;;;;;;27.38;21.25;;;;;;;;;;5002910;28;20563;-69
2021/01/07 02:14:49;;;;;;;26.80;22.85;;;;;;;;;;5002690;28;20061;-69
2021/01/07 02:17:15;;;;;;;35.95;22.77;;;;;;;;;;5004031;28;20038;-69
2021/01/07 02:19:41;;;;;;;28.02;22.10;;;;;;;;;;5000471;28;20033;-69
2021/01/07 02:22:07;;;;;;;28.40;22.27;;;;;;;;;;5003160;28;20400;-69
2021/01/07 02:24:33;;;;;;;25.35;20.75;;;;;;;;;;4999205;28;20484;-69
2021/01/07 02:27:02;;;;;;;27.63;21.40;;;;;;;;;;5001485;28;20034;-69
2021/01/07 02:29:28;;;;;;;25.52;20.70;;;;;;;;;;5000870;28;20037;-69
2021/01/07 02:31:53;;;;;;;26.13;20.70;;;;;;;;;;5002047;28;20042;-69
2021/01/07 02:34:18;;;;;;;26.23;21.23;;;;;;;;;;5002604;28;20033;-69
2021/01/07 02:36:44;;;;;;;27.05;21.30;;;;;;;;;;5001493;28;20038;-69
2021/01/07 02:39:09;;;;;;;28.08;20.45;;;;;;;;;;5002282;28;20062;-69
2021/01/07 02:41:35;;;;;;;22.60;19.02;;;;;;;;;;5000835;28;20038;-69
2021/01/07 02:44:00;;;;;;;26.73;19.45;;;;;;;;;;5003298;28;20351;-69
2021/01/07 02:46:25;;;;;;;29.38;19.38;;;;;;;;;;5001780;28;20562;-69
2021/01/07 02:48:51;;;;;;;25.90;19.40;;;;;;;;;;5001240;28;20655;-69
2021/01/07 02:51:16;;;;;;;30.63;21.38;;;;;;;;;;5003700;28;20061;-69
2021/01/07 02:53:41;;;;;;;24.77;19.73;;;;;;;;;;5000643;28;20474;-69
2021/01/07 02:56:07;;;;;;;27.23;20.67;;;;;;;;;;5002794;28;20611;-69
2021/01/07 02:58:32;;;;;;;30.52;21.42;;;;;;;;;;5000199;28;20389;-69
2021/01/07 03:00:58;;;;;;;24.38;20.98;;;;;;;;;;5002188;28;20033;-69
2021/01/07 03:03:23;;;;;;;31.70;20.17;;;;;;;;;;5002195;28;20368;-69
2021/01/07 03:05:48;;;;;;;28.80;19.55;;;;;;;;;;4998139;28;20095;-69
2021/01/07 03:08:14;;;;;;;28.63;21.63;;;;;;;;;;5000436;28;20148;-69
2021/01/07 03:10:39;;;;;;;34.00;20.67;;;;;;;;;;4998588;28;20524;-69
2021/01/07 03:13:04;;;;;;;25.13;21.05;;;;;;;;;;5001178;28;20385;-69
2021/01/07 03:15:30;;;;;;;24.35;19.92;;;;;;;;;;4999336;28;20045;-69
2021/01/07 03:17:55;;;;;;;30.65;21.33;;;;;;;;;;5002157;28;20405;-69
2021/01/07 03:20:22;;;;;;;28.25;20.85;;;;;;;;;;5002159;28;20465;-70
2021/01/07 03:22:47;;;;;;;31.35;20.45;;;;;;;;;;4999472;28;20080;-69
2021/01/07 03:25:12;;;;;;;25.08;19.45;;;;;;;;;;5017988;28;20046;-69
2021/01/07 03:27:38;;;;;;;28.65;21.17;;;;;;;;;;5000467;28;20038;-69
2021/01/07 03:30:07;;;;;;;26.98;20.77;;;;;;;;;;5002299;28;20073;-68
2021/01/07 03:32:32;;;;;;;25.75;20.65;;;;;;;;;;4998678;28;20535;-69
2021/01/07 03:34:58;;;;;;;27.00;20.83;;;;;;;;;;5001351;28;20113;-69
2021/01/07 03:37:23;;;;;;;25.90;19.65;;;;;;;;;;5000561;28;20048;-69
2021/01/07 03:39:48;;;;;;;29.83;21.15;;;;;;;;;;4998947;28;20026;-69
2021/01/07 03:42:14;;;;;;;27.55;20.55;;;;;;;;;;5001292;28;20113;-69
2021/01/07 03:44:39;;;;;;;26.98;20.48;;;;;;;;;;4999038;28;20158;-69
2021/01/07 03:47:05;;;;;;;25.95;19.80;;;;;;;;;;5001152;28;20479;-69
2021/01/07 03:49:31;;;;;;;31.00;22.27;;;;;;;;;;4998531;28;20037;-69
2021/01/07 03:51:56;;;;;;;26.10;20.45;;;;;;;;;;5001787;28;20488;-69
2021/01/07 03:54:21;;;;;;;28.85;18.83;;;;;;;;;;4994527;28;20034;-69
2021/01/07 03:56:47;;;;;;;23.35;18.98;;;;;;;;;;4998006;28;20121;-69
2021/01/07 03:59:12;;;;;;;25.98;18.48;;;;;;;;;;5002182;28;20073;-69
2021/01/07 04:01:37;;;;;;;24.92;18.80;;;;;;;;;;5001758;28;20073;-69
2021/01/07 04:04:03;;;;;;;25.17;18.70;;;;;;;;;;4999299;28;20362;-69
2021/01/07 04:06:28;;;;;;;26.63;17.33;;;;;;;;;;4998413;28;20037;-69
2021/01/07 04:08:53;;;;;;;22.95;18.65;;;;;;;;;;4999709;28;20049;-69
2021/01/07 04:11:19;;;;;;;23.48;18.13;;;;;;;;;;4998153;28;20044;-68
2021/01/07 04:13:44;;;;;;;24.95;18.88;;;;;;;;;;4997737;28;20485;-69
2021/01/07 04:16:09;;;;;;;26.45;17.52;;;;;;;;;;5001009;28;20095;-69
2021/01/07 04:18:35;;;;;;;23.33;18.42;;;;;;;;;;4999360;28;20033;-69
2021/01/07 04:21:01;;;;;;;23.35;18.77;;;;;;;;;;5000276;28;20065;-69
2021/01/07 04:23:27;;;;;;;23.20;18.83;;;;;;;;;;5000320;28;20101;-69
2021/01/07 04:25:52;;;;;;;24.60;19.48;;;;;;;;;;5000299;28;20501;-69
2021/01/07 04:28:17;;;;;;;27.17;19.13;;;;;;;;;;5001087;28;20026;-68
2021/01/07 04:30:43;;;;;;;26.30;19.30;;;;;;;;;;4997236;28;20460;-68
2021/01/07 04:33:08;;;;;;;26.08;19.15;;;;;;;;;;5001794;28;20118;-69
2021/01/07 04:35:33;;;;;;;24.98;18.58;;;;;;;;;;5014446;28;20025;-68
2021/01/07 04:37:59;;;;;;;25.67;17.48;;;;;;;;;;5001633;28;20037;-68
2021/01/07 04:40:24;;;;;;;25.35;18.80;;;;;;;;;;4997470;28;20038;-69
2021/01/07 04:42:49;;;;;;;26.05;19.90;;;;;;;;;;4998823;28;20520;-68
2021/01/07 04:45:15;;;;;;;26.70;17.67;;;;;;;;;;5001417;28;20046;-68
2021/01/07 04:47:40;;;;;;;27.08;18.00;;;;;;;;;;4999033;28;20027;-69
2021/01/07 04:50:06;;;;;;;24.67;18.80;;;;;;;;;;4981090;28;20110;-68
2021/01/07 04:52:33;;;;;;;24.33;19.13;;;;;;;;;;5000431;28;20037;-68
2021/01/07 04:55:00;;;;;;;23.38;17.55;;;;;;;;;;5001727;28;20038;-68
2021/01/07 04:57:25;;;;;;;25.80;19.17;;;;;;;;;;4999830;28;20147;-68
2021/01/07 04:59:51;;;;;;;25.30;18.98;;;;;;;;;;4996418;28;20097;-68
2021/01/07 05:02:17;;;;;;;22.67;17.42;;;;;;;;;;5003092;28;20572;-68
2021/01/07 05:04:53;;;;;;;24.90;17.98;;;;;;;;;;4998854;28;20030;-68
2021/01/07 05:07:19;;;;;;;31.38;19.65;;;;;;;;;;4998715;28;20458;-68
2021/01/07 05:09:46;;;;;;;27.40;18.67;;;;;;;;;;4999764;28;20083;-69
2021/01/07 05:12:13;;;;;;;24.63;19.38;;;;;;;;;;5001589;28;20096;-68
2021/01/07 05:14:45;;;;;;;22.92;18.33;;;;;;;;;;4998906;28;20045;-68
2021/01/07 05:17:13;;;;;;;32.08;20.92;;;;;;;;;;5000867;28;20121;-68
2021/01/07 05:19:39;;;;;;;27.27;20.27;;;;;;;;;;4998934;28;20042;-69
2021/01/07 05:22:05;;;;;;;27.65;20.45;;;;;;;;;;4999936;28;20049;-68
2021/01/07 05:24:32;;;;;;;27.58;20.90;;;;;;;;;;4998129;28;20119;-68
2021/01/07 05:27:03;;;;;;;26.45;20.95;;;;;;;;;;4999143;28;20180;-68
2021/01/07 05:29:28;;;;;;;24.30;18.30;;;;;;;;;;5002987;28;20113;-68
2021/01/07 05:31:54;;;;;;;25.77;20.45;;;;;;;;;;5006250;28;20185;-69
2021/01/07 05:34:19;;;;;;;28.17;20.67;;;;;;;;;;5001119;28;20049;-69
2021/01/07 05:36:44;;;;;;;26.88;20.23;;;;;;;;;;5003052;28;20030;-69
2021/01/07 05:39:10;;;;;;;26.02;20.10;;;;;;;;;;5002363;28;20034;-69
2021/01/07 05:41:35;;;;;;;29.52;20.10;;;;;;;;;;5001446;28;20030;-69
2021/01/07 05:44:12;;;;;;;28.17;20.23;;;;;;;;;;5000760;28;20041;-69
2021/01/07 05:46:38;;;;;;;28.45;20.48;;;;;;;;;;5001944;28;20678;-69
2021/01/07 05:49:03;;;;;;;29.17;21.95;;;;;;;;;;5004057;28;20168;-69
2021/01/07 05:51:30;;;;;;;27.05;20.00;;;;;;;;;;5003342;28;20064;-69
2021/01/07 05:53:57;;;;;;;24.67;19.33;;;;;;;;;;5002013;28;20038;-69
2021/01/07 05:56:24;;;;;;;27.77;20.42;;;;;;;;;;5001296;28;20060;-69
2021/01/07 05:58:51;;;;;;;26.77;18.98;;;;;;;;;;4997669;28;20038;-69
2021/01/07 06:01:17;;;;;;;28.88;20.17;;;;;;;;;;5000970;28;20041;-69
2021/01/07 06:03:50;;;;;;;27.70;21.52;;;;;;;;;;5013907;28;20489;-69
2021/01/07 06:06:17;;;;;;;29.88;20.23;;;;;;;;;;5000924;28;20049;-69
2021/01/07 06:08:49;;;;;;;28.90;20.38;;;;;;;;;;5000536;28;20422;-69
2021/01/07 06:11:19;;;;;;;27.88;20.20;;;;;;;;;;5004233;28;20103;-69
2021/01/07 06:13:46;;;;;;;25.77;19.70;;;;;;;;;;4999226;28;20038;-69
2021/01/07 06:16:20;;;;;;;27.98;19.75;;;;;;;;;;5002783;28;20068;-69
2021/01/07 06:18:46;;;;;;;26.85;19.33;;;;;;;;;;4995037;28;20130;-69
2021/01/07 06:21:12;;;;;;;27.88;20.35;;;;;;;;;;5002445;28;20038;-69
2021/01/07 06:23:43;;;;;;;26.05;18.90;;;;;;;;;;5001491;28;20490;-69
2021/01/07 06:26:27;;;;;;;26.50;19.92;;;;;;;;;;5000406;28;20050;-69
2021/01/07 06:28:54;;;;;;;31.25;20.92;;;;;;;;;;5001570;28;20041;-69
2021/01/07 06:31:20;;;;;;;27.05;18.80;;;;;;;;;;5002436;28;20064;-69
2021/01/07 06:33:49;;;;;;;23.67;18.85;;;;;;;;;;5000679;28;20132;-69
2021/01/07 06:36:14;;;;;;;30.00;21.17;;;;;;;;;;5000796;28;20042;-69
2021/01/07 06:38:51;;;;;;;30.52;20.33;;;;;;;;;;5000540;28;20042;-69
2021/01/07 06:41:17;;;;;;;33.03;20.65;;;;;;;;;;5002232;28;20033;-69
2021/01/07 06:43:45;;;;;;;31.17;19.98;;;;;;;;;;4999041;28;20107;-69
2021/01/07 06:46:10;;;;;;;29.45;20.40;;;;;;;;;;5003244;28;20120;-69
2021/01/07 06:48:37;;;;;;;27.85;18.92;;;;;;;;;;5001149;28;20458;-69
2021/01/07 06:51:04;;;;;;;23.70;19.05;;;;;;;;;;5002030;28;20084;-69
2021/01/07 06:53:35;;;;;;;28.55;21.30;;;;;;;;;;5000429;28;20038;-69
2021/01/07 06:56:13;;;;;;;26.10;19.90;;;;;;;;;;4999901;28;20038;-69
2021/01/07 06:58:40;;;;;;;23.25;19.23;;;;;;;;;;4999377;28;20386;-69
2021/01/07 07:01:08;;;;;;;25.75;19.42;;;;;;;;;;5000693;28;20088;-69
2021/01/07 07:03:39;;;;;;;25.98;19.75;;;;;;;;;;4999739;28;20037;-69
2021/01/07 07:06:08;;;;;;;25.95;19.40;;;;;;;;;;4998282;28;20077;-69
2021/01/07 07:08:34;;;;;;;26.17;18.48;;;;;;;;;;4999591;28;20049;-69
2021/01/07 07:11:08;;;;;;;27.17;20.77;;;;;;;;;;4999561;28;20030;-69
2021/01/07 07:13:39;;;;;;;24.48;18.63;;;;;;;;;;4996912;28;20128;-69
2021/01/07 07:16:06;;;;;;;30.17;20.33;;;;;;;;;;5000008;28;20037;-69
2021/01/07 07:18:35;;;;;;;24.90;18.77;;;;;;;;;;5000418;28;20042;-69
2021/01/07 07:21:18;;;;;;;24.35;18.33;;;;;;;;;;5002806;28;20030;-69
2021/01/07 07:23:44;;;;;;;26.83;19.20;;;;;;;;;;4995818;28;20041;-69
2021/01/07 07:26:12;;;;;;;25.15;18.30;;;;;;;;;;5001192;28;20041;-69
2021/01/07 07:28:43;;;;;;;23.17;17.65;;;;;;;;;;4998570;28;20045;-69
2021/01/07 07:31:09;;;;;;;;;;;;;;;;;;4998175;28;20042;-69
2021/01/07 07:33:39;;;;;;;24.50;17.23;;;;;;;;;;4997359;28;19940;-70
2021/01/07 07:36:07;;;;;;;27.40;18.35;;;;;;;;;;4999928;28;20021;-69
2021/01/07 07:38:35;;;;;;;28.10;18.02;;;;;;;;;;4998727;28;20038;-69
2021/01/07 07:41:03;;;;;;;26.50;18.40;;;;;;;;;;5002474;28;20037;-70
2021/01/07 07:43:29;;;;;;;27.65;19.80;;;;;;;;;;5016099;28;20033;-69
2021/01/07 07:45:55;;;;;;;26.80;18.58;;;;;;;;;;4999722;28;20523;-69
2021/01/07 07:48:24;;;;;;;21.90;17.85;;;;;;;;;;5001756;28;20109;-68
2021/01/07 07:50:50;;;;;;;25.25;18.80;;;;;;;;;;5000927;28;20026;-68
2021/01/07 07:53:15;;;;;;;25.90;19.05;;;;;;;;;;5000319;28;20060;-68
2021/01/07 07:55:42;;;;;;;29.10;18.85;;;;;;;;;;4997809;28;20022;-69
2021/01/07 07:58:17;;;;;;;32.17;19.80;;;;;;;;;;5000426;28;20030;-69
2021/01/07 08:00:50;;;;;;;27.52;20.27;;;;;;;;;;4996846;28;20033;-69
2021/01/07 08:03:32;;;;;;;23.40;17.35;;;;;;;;;;5002260;28;20041;-69
2021/01/07 08:05:59;;;;;;;23.83;17.15;;;;;;;;;;5000065;28;20113;-69
2021/01/07 08:08:26;;;;;;;23.75;16.23;;;;;;;;;;4999518;28;20054;-69
2021/01/07 08:10:53;;;;;;;24.67;16.92;;;;;;;;;;5000618;28;20030;-69
2021/01/07 08:13:19;;;;;;;24.08;16.38;;;;;;;;;;5000523;28;20083;-69
2021/01/07 08:15:49;;;;;;;24.42;16.33;;;;;;;;;;4994571;28;20172;-70
2021/01/07 08:18:20;;;;;;;20.42;16.25;;;;;;;;;;4993415;28;20133;-69
2021/01/07 08:20:46;;;;;;;25.67;16.27;;;;;;;;;;4999985;28;20041;-69
2021/01/07 08:23:14;;;;;;;23.35;16.77;;;;;;;;;;5002185;28;20042;-69
2021/01/07 08:25:43;;;;;;;23.10;17.20;;;;;;;;;;4998024;28;20129;-69
2021/01/07 08:28:23;;;;;;;21.55;15.20;;;;;;;;;;5002453;28;20037;-69
2021/01/07 08:30:52;;;;;;;23.05;15.57;;;;;;;;;;5000422;28;20117;-69
2021/01/07 08:33:19;;;;;;;22.73;16.20;;;;;;;;;;5000549;28;20029;-69
2021/01/07 08:35:45;;;;;;;23.55;16.15;;;;;;;;;;4997650;28;20452;-69
2021/01/07 08:38:22;;;;;;;23.48;16.80;;;;;;;;;;5000730;28;20125;-70
2021/01/07 08:40:48;;;;;;;25.23;18.23;;;;;;;;;;4998793;28;20718;-69
2021/01/07 08:43:13;;;;;;;24.98;17.75;;;;;;;;;;5002264;28;20073;-69
2021/01/07 08:45:39;;;;;;;24.40;17.77;;;;;;;;;;4998682;28;20144;-69
2021/01/07 08:48:08;;;;;;;18.58;15.50;;;;;;;;;;5001324;28;20381;-69
2021/01/07 08:50:34;;;;;;;23.27;15.98;;;;;;;;;;4998772;28;20608;-69
2021/01/07 08:53:05;;;;;;;21.90;15.80;;;;;;;;;;4997712;28;20421;-69
2021/01/07 08:55:50;;;;;;;20.48;15.10;;;;;;;;;;4999028;28;20041;-69
2021/01/07 08:58:25;;;;;;;22.50;15.50;;;;;;;;;;4998698;28;20046;-69
2021/01/07 09:00:53;;;;;;;19.80;14.02;;;;;;;;;;4998347;28;20030;-70
2021/01/07 09:03:19;;;;;;;20.40;15.25;;;;;;;;;;4999204;28;20372;-69
2021/01/07 09:05:45;;;;;;;23.77;15.93;;;;;;;;;;5004480;28;20031;-69
2021/01/07 09:08:13;;;;;;;18.20;14.32;;;;;;;;;;5004463;28;20086;-68
2021/01/07 09:10:40;;;;;;;22.67;15.10;;;;;;;;;;5000189;28;20042;-69
2021/01/07 09:13:26;;;;;;;23.13;15.15;;;;;;;;;;5001355;28;20066;-69
2021/01/07 09:15:51;;;;;;;20.02;13.93;;;;;;;;;;5003105;28;20026;-69
2021/01/07 09:18:20;;;;;;;19.60;14.38;;;;;;;;;;5004222;28;20214;-69
2021/01/07 09:20:46;;;;;;;22.40;13.80;;;;;;;;;;4998768;28;20453;-69
2021/01/07 09:23:15;;;;;;;21.23;15.27;;;;;;;;;;4999849;28;20044;-70
2021/01/07 09:25:41;;;;;;;16.88;12.63;;;;;;;;;;4998659;28;20042;-70
2021/01/07 09:28:07;;;;;;;19.98;13.95;;;;;;;;;;5003831;28;20515;-70
2021/01/07 09:30:32;;;;;;;18.63;13.05;;;;;;;;;;5000100;28;20038;-70
2021/01/07 09:32:58;;;;;;;19.60;14.32;;;;;;;;;;5000983;28;20038;-70
2021/01/07 09:35:26;;;;;;;23.02;13.75;;;;;;;;;;4991027;28;20035;-70
2021/01/07 09:37:52;;;;;;;22.77;14.52;;;;;;;;;;4997957;28;20038;-70
2021/01/07 09:40:18;;;;;;;19.83;14.18;;;;;;;;;;5001263;28;20058;-71
2021/01/07 09:42:44;;;;;;;18.02;13.20;;;;;;;;;;4993766;28;20034;-70
2021/01/07 09:45:10;;;;;;;20.23;13.52;;;;;;;;;;4997249;28;20049;-70
2021/01/07 09:47:36;;;;;;;20.25;13.68;;;;;;;;;;4997880;28;20056;-70
2021/01/07 09:50:07;;;;;;;22.02;13.73;;;;;;;;;;4998066;28;20537;-70
2021/01/07 09:52:32;;;;;;;18.95;13.80;;;;;;;;;;4998170;28;20073;-70
2021/01/07 09:54:59;;;;;;;15.90;12.18;;;;;;;;;;4995867;28;20496;-70
2021/01/07 09:57:24;;;;;;;20.75;13.38;;;;;;;;;;5000708;28;20037;-70
2021/01/07 09:59:49;;;;;;;20.05;12.80;;;;;;;;;;4997402;28;20107;-69
2021/01/07 10:02:15;;;;;;;18.58;11.98;;;;;;;;;;5001199;28;20069;-70
2021/01/07 10:04:44;;;;;;;18.20;11.98;;;;;;;;;;4997529;28;20030;-70
2021/01/07 10:07:10;;;;;;;19.20;12.70;;;;;;;;;;4998366;28;20168;-70
2021/01/07 10:09:35;;;;;;;18.25;12.75;;;;;;;;;;4999042;28;20120;-70
2021/01/07 10:12:01;;;;;;;17.17;12.98;;;;;;;;;;4999796;28;20045;-69
2021/01/07 10:14:28;;;;;;;18.63;12.70;;;;;;;;;;4998780;28;20045;-69
2021/01/07 10:17:05;;;;;;;21.10;13.98;;;;;;;;;;5000630;28;20117;-70
2021/01/07 10:19:32;;;;;;;18.23;12.88;;;;;;;;;;4997429;28;20034;-70
2021/01/07 10:22:04;;;;;;;18.17;12.80;;;;;;;;;;4999607;28;20038;-70
2021/01/07 10:24:32;;;;;;;17.17;12.85;;;;;;;;;;4999380;28;20117;-70
2021/01/07 10:27:03;;;;;;;22.52;12.98;;;;;;;;;;5002078;28;20468;-68
2021/01/07 10:29:33;;;;;;;17.02;12.52;;;;;;;;;;4997789;28;20038;-69
2021/01/07 10:32:03;;;;;;;19.55;12.55;;;;;;;;;;4993108;28;20046;-69
2021/01/07 10:34:30;;;;;;;20.50;13.23;;;;;;;;;;4996071;28;20045;-70
2021/01/07 10:36:57;;;;;;;19.67;12.18;;;;;;;;;;4998123;28;20069;-70
2021/01/07 10:39:24;;;;;;;19.40;13.70;;;;;;;;;;4997535;28;20034;-69
2021/01/07 10:41:51;;;;;;;15.98;11.65;;;;;;;;;;4998545;28;20038;-70
2021/01/07 10:44:18;;;;;;;17.40;12.10;;;;;;;;;;5002352;28;20125;-69
2021/01/07 10:46:45;;;;;;;16.85;12.25;;;;;;;;;;4991050;28;20038;-69
2021/01/07 10:49:13;;;;;;;18.95;12.35;;;;;;;;;;4998727;28;20041;-69
2021/01/07 10:51:53;;;;;;;17.80;12.27;;;;;;;;;;4989977;28;20626;-70
2021/01/07 10:54:39;;;;;;;17.85;11.38;;;;;;;;;;4997493;28;20029;-70
2021/01/07 10:57:30;;;;;;;17.92;11.75;;;;;;;;;;4994388;28;20151;-70
2021/01/07 11:00:08;;;;;;;19.73;12.18;;;;;;;;;;4997093;28;20148;-70
2021/01/07 11:03:18;;;;;;;16.90;11.10;;;;;;;;;;4995444;28;20061;-70
2021/01/07 11:05:47;;;;;;;18.77;12.55;;;;;;;;;;4981049;28;20083;-71
2021/01/07 11:08:26;;;;;;;15.25;11.70;;;;;;;;;;4996456;28;20428;-70
2021/01/07 11:10:54;;;;;;;18.60;12.20;;;;;;;;;;4996775;28;20505;-69
2021/01/07 11:13:29;;;;;;;17.02;12.15;;;;;;;;;;4998195;28;20041;-69
2021/01/07 11:15:56;;;;;;;14.77;11.77;;;;;;;;;;4998662;28;20029;-69
2021/01/07 11:18:27;;;;;;;14.00;10.57;;;;;;;;;;5000058;28;20116;-69
2021/01/07 11:20:58;;;;;;;13.80;10.38;;;;;;;;;;4999175;28;20449;-69
2021/01/07 11:23:26;;;;;;;17.08;10.98;;;;;;;;;;4998260;28;20434;-69
2021/01/07 11:25:52;;;;;;;14.35;10.30;;;;;;;;;;4997081;28;20034;-69
2021/01/07 11:28:18;;;;;;;14.90;11.02;;;;;;;;;;4998941;28;20041;-69
2021/01/07 11:30:44;;;;;;;17.90;11.65;;;;;;;;;;4994201;28;20053;-69
2021/01/07 11:33:10;;;;;;;15.60;11.05;;;;;;;;;;5000035;28;20226;-68
2021/01/07 11:35:37;;;;;;;16.52;11.63;;;;;;;;;;4993211;28;20100;-69
2021/01/07 11:38:04;;;;;;;16.10;11.20;;;;;;;;;;4995749;28;20033;-69
2021/01/07 11:40:51;;;;;;;15.75;11.70;;;;;;;;;;4997667;28;20121;-69
2021/01/07 11:43:54;;;;;;;18.90;11.20;;;;;;;;;;4999214;28;20108;-69
2021/01/07 11:46:20;;;;;;;18.40;11.77;;;;;;;;;;4995977;28;20091;-69
2021/01/07 11:48:52;;;;;;;16.05;11.18;;;;;;;;;;4993222;28;20153;-69
2021/01/07 11:51:18;;;;;;;13.88;10.75;;;;;;;;;;4999897;28;20053;-70
2021/01/07 11:53:44;;;;;;;17.00;11.50;;;;;;;;;;4993712;28;20458;-68
2021/01/07 11:56:11;;;;;;;16.27;10.75;;;;;;;;;;4997489;28;20104;-70
2021/01/07 11:58:39;;;;;;;17.75;11.50;;;;;;;;;;4994912;28;20066;-68
2021/01/07 12:01:05;;;;;;;18.17;11.23;;;;;;;;;;4997904;28;20111;-69
2021/01/07 12:03:32;;;;;;;15.00;11.30;;;;;;;;;;4996161;28;20041;-68
2021/01/07 12:06:04;;;;;;;18.50;10.73;;;;;;;;;;4998290;28;20065;-68
2021/01/07 12:08:35;;;;;;;14.07;10.68;;;;;;;;;;4997429;28;20048;-68
2021/01/07 12:11:02;;;;;;;15.73;10.40;;;;;;;;;;4996310;28;20048;-68
2021/01/07 12:13:27;;;;;;;14.23;10.60;;;;;;;;;;4996994;28;20104;-68
2021/01/07 12:15:53;;;;;;;14.15;10.30;;;;;;;;;;4996638;28;20034;-68
2021/01/07 12:18:20;;;;;;;14.55;10.10;;;;;;;;;;4995071;28;20052;-68
2021/01/07 12:20:47;;;;;;;13.38;9.85;;;;;;;;;;4998731;28;20110;-68
2021/01/07 12:23:14;;;;;;;15.27;10.48;;;;;;;;;;4999196;28;20045;-67
2021/01/07 12:25:41;;;;;;;20.63;12.13;;;;;;;;;;4998736;28;20113;-67
2021/01/07 12:28:08;;;;;;;22.55;13.38;;;;;;;;;;4987392;28;20529;-68
2021/01/07 12:30:43;;;;;;;24.92;14.82;;;;;;;;;;4994341;28;20034;-67
2021/01/07 12:33:44;;;;;;;14.93;10.40;;;;;;;;;;4996614;28;20372;-68
2021/01/07 12:36:28;;;;;;;15.93;11.10;;;;;;;;;;4997059;28;20114;-67
2021/01/07 12:39:06;;;;;;;13.18;10.43;;;;;;;;;;4996243;28;20034;-68
2021/01/07 12:41:43;;;;;;;13.57;9.98;;;;;;;;;;4998153;28;20107;-68
2021/01/07 12:44:13;;;;;;;15.38;10.90;;;;;;;;;;5000287;28;20038;-68
2021/01/07 12:46:44;;;;;;;15.32;9.55;;;;;;;;;;4997344;28;20042;-68
2021/01/07 12:49:10;;;;;;;15.63;10.05;;;;;;;;;;4997988;28;20049;-68
2021/01/07 12:51:37;;;;;;;15.55;9.95;;;;;;;;;;4999040;28;20037;-69
2021/01/07 12:54:02;;;;;;;13.25;9.93;;;;;;;;;;5001014;28;20099;-68
2021/01/07 12:56:36;;;;;;;14.50;10.25;;;;;;;;;;4992690;28;20041;-69
2021/01/07 12:59:09;;;;;;;13.35;9.43;;;;;;;;;;5000532;28;20037;-69
2021/01/07 13:01:45;;;;;;;12.30;9.55;;;;;;;;;;4998687;28;20578;-68
2021/01/07 13:04:21;;;;;;;14.73;10.30;;;;;;;;;;5001636;28;20061;-68
2021/01/07 13:06:53;;;;;;;15.98;10.80;;;;;;;;;;4998712;28;20054;-68
2021/01/07 13:09:23;;;;;;;17.17;10.70;;;;;;;;;;5002042;28;20112;-73
2021/01/07 13:11:49;;;;;;;15.68;10.27;;;;;;;;;;4999650;28;20038;-68
2021/01/07 13:14:15;;;;;;;15.88;10.13;;;;;;;;;;5001010;28;20042;-68
2021/01/07 13:16:41;;;;;;;17.38;11.05;;;;;;;;;;4998101;28;20082;-68
2021/01/07 13:19:07;;;;;;;15.02;10.13;;;;;;;;;;5001202;28;20065;-68
2021/01/07 13:21:32;;;;;;;15.20;10.52;;;;;;;;;;4999273;28;20492;-68
2021/01/07 13:24:04;;;;;;;16.52;9.52;;;;;;;;;;5001322;28;20042;-68
2021/01/07 13:26:30;;;;;;;16.30;10.60;;;;;;;;;;5001077;28;20108;-69
2021/01/07 13:28:56;;;;;;;19.05;10.30;;;;;;;;;;5002033;28;20137;-69
2021/01/07 13:31:21;;;;;;;14.82;10.45;;;;;;;;;;5001308;28;20678;-69
2021/01/07 13:33:47;;;;;;;15.52;10.10;;;;;;;;;;4995859;28;20030;-69
2021/01/07 13:36:14;;;;;;;13.63;10.15;;;;;;;;;;4996999;28;20112;-67
2021/01/07 13:38:41;;;;;;;14.77;10.18;;;;;;;;;;4999240;28;20034;-68
2021/01/07 13:41:07;;;;;;;13.60;9.77;;;;;;;;;;5003029;28;20113;-69
2021/01/07 13:43:34;;;;;;;15.57;11.00;;;;;;;;;;4996114;28;20046;-69
2021/01/07 13:46:02;;;;;;;16.40;10.65;;;;;;;;;;5001917;28;20033;-67
2021/01/07 13:48:29;;;;;;;16.77;11.23;;;;;;;;;;5002321;28;20092;-68
2021/01/07 13:51:01;;;;;;;16.85;10.30;;;;;;;;;;5003139;28;20702;-68
2021/01/07 13:53:34;;;;;;;16.98;10.95;;;;;;;;;;5004580;28;20053;-67
2021/01/07 13:56:00;;;;;;;14.27;10.15;;;;;;;;;;4998139;28;20049;-69
2021/01/07 13:58:27;;;;;;;13.52;9.82;;;;;;;;;;5000478;28;20213;-67
2021/01/07 14:00:54;;;;;;;14.80;9.55;;;;;;;;;;5000955;28;20445;-73
2021/01/07 14:03:19;;;;;;;14.65;10.15;;;;;;;;;;5004808;28;20049;-69
2021/01/07 14:05:45;;;;;;;14.32;10.43;;;;;;;;;;5001973;28;20027;-69
2021/01/07 14:08:18;;;;;;;14.40;10.13;;;;;;;;;;5001214;28;20026;-68
2021/01/07 14:10:46;;;;;;;13.30;9.73;;;;;;;;;;5001775;28;20100;-68
2021/01/07 14:13:11;;;;;;;15.25;9.57;;;;;;;;;;5003932;28;20065;-68
2021/01/07 14:15:37;;;;;;;18.85;9.52;;;;;;;;;;4998448;28;20060;-68
2021/01/07 14:18:04;;;;;;;13.60;9.85;;;;;;;;;;4998939;28;20040;-68
2021/01/07 14:20:29;;;;;;;14.18;9.80;;;;;;;;;;5002545;28;20077;-66
2021/01/07 14:22:55;;;;;;;13.90;9.38;;;;;;;;;;5004015;28;20062;-67